Sainte-Felicite, Canada
Current Conditions -  °F | °C
As of 11:00 PM on Saturday 22 Nov 2014 (Local Time) from CYBC Reporting Station
Overcast Overcast  
Wind Chill: 20°   Ceiling: 7000
Heat Index: 32°   Visibility: 9mi
Dew Point: 28°   Wind: 21mph
Humidity: 87%   Direction: 250°WSW
Pressure: 29.63"   Gusts: NA
Location:  48.9°N, 67.33°W
Report Text: CYBC 230400Z AUTO 25018KT 9SM OVC070 M00/M02 A2963 RMK SLP036
Loading
Personal Weather Stations






























Interactive Weather Map New forecast layout! Learn more

10-Day Weather Forecast

Advertisements
Track Severe Weather on mobile